Time;durP1;ratioP1;P1;durP2;ratioP2;P2;SDS_P1;SDS_P2;PMS_P1;PMS_P2;Temp;Humidity;BMP_temperature;BMP_pressure;BME280_temperature;BME280_humidity;BME280_pressure;Samples;Min_cycle;Max_cycle;Signal;HPM_P1;HPM_P2
2022/03/12 00:00:30;;;;;;;8.80;5.28;;;8.30;91.40;;;;;;5085892;28;20122;-63
2022/03/12 00:02:57;;;;;;;10.27;4.80;;;;;;;;;;5085459;28;20442;-63
2022/03/12 00:05:25;;;;;;;7.50;5.30;;;;;;;;;;5085370;28;20058;-63
2022/03/12 00:07:51;;;;;;;9.77;4.93;;;;;;;;;;5081582;28;20100;-63
2022/03/12 00:10:21;;;;;;;9.05;5.47;;;;;;;;;;5089039;28;20036;-63
2022/03/12 00:12:47;;;;;;;9.55;5.70;;;;;;;;;;5084310;28;20043;-63
2022/03/12 00:15:14;;;;;;;7.82;5.10;;;;;;;;;;5086859;28;20131;-63
2022/03/12 00:17:43;;;;;;;7.43;4.88;;;;;;;;;;5089912;28;20506;-63
2022/03/12 00:20:14;;;;;;;12.23;5.32;;;;;;;;;;5085087;28;20044;-63
2022/03/12 00:22:45;;;;;;;8.63;4.88;;;;;;;;;;5088991;28;20074;-63
2022/03/12 00:25:11;;;;;;;11.15;5.30;;;;;;;;;;5087233;28;20115;-63
2022/03/12 00:27:39;;;;;;;7.75;5.07;;;;;;;;;;5084302;28;20078;-60
2022/03/12 00:30:06;;;;;;;11.43;5.60;;;;;;;;;;5086288;28;20051;-62
2022/03/12 00:32:35;;;;;;;10.65;5.78;;;;;;;;;;5089269;28;20078;-63
2022/03/12 00:35:02;;;;;;;9.38;5.03;;;;;;;;;;5089587;28;20071;-63
2022/03/12 00:37:28;;;;;;;7.25;5.03;;;;;;;;;;5085572;28;20036;-63
2022/03/12 00:39:55;;;;;;;7.97;5.32;;;;;;;;;;5087307;28;20118;-63
2022/03/12 00:42:21;;;;;;;7.75;5.28;;;;;;;;;;5089231;28;20051;-63
2022/03/12 00:44:47;;;;;;;8.40;4.88;;;;;;;;;;5088469;28;20044;-63
2022/03/12 00:47:13;;;;;;;8.07;5.35;;;;;;;;;;5089384;28;20059;-63
2022/03/12 00:49:39;;;;;;;8.50;4.75;;;;;;;;;;5089648;28;20056;-63
2022/03/12 00:52:05;;;;;;;9.07;5.30;;;;;;;;;;5085366;28;20040;-63
2022/03/12 00:54:31;;;;;;;8.65;5.28;;;;;;;;;;5087075;28;20422;-63
2022/03/12 00:56:57;;;;;;;8.85;5.28;;;;;;;;;;5088709;28;20104;-63
2022/03/12 00:59:24;;;;;;;7.80;5.20;;;;;;;;;;5089345;28;20440;-63
2022/03/12 01:01:50;;;;;;;10.25;5.32;;;;;;;;;;5089204;28;20036;-63
2022/03/12 01:04:16;;;;;;;8.23;5.10;;;;;;;;;;5088592;28;20039;-63
2022/03/12 01:06:42;;;;;;;8.73;5.25;;;;;;;;;;5084678;28;20066;-63
2022/03/12 01:09:10;;;;;;;11.23;4.75;;;;;;;;;;5084122;28;20403;-63
2022/03/12 01:11:38;;;;;;;7.45;5.03;;;;;;;;;;5085581;28;20051;-63
2022/03/12 01:14:06;;;;;;;8.85;5.45;;;;;;;;;;5087154;28;20539;-63
2022/03/12 01:16:32;;;;;;;9.68;5.93;;;;;;;;;;5085068;28;20051;-63
2022/03/12 01:18:58;;;;;;;9.70;5.85;;;;;;;;;;5089932;28;20040;-63
2022/03/12 01:21:24;;;;;;;7.10;4.97;;;;;;;;;;5088499;28;20032;-63
2022/03/12 01:23:51;;;;;;;7.15;5.05;;;;;;;;;;5086736;28;20081;-63
2022/03/12 01:26:18;;;;;;;7.30;5.03;;;;;;;;;;5087773;28;20592;-63
2022/03/12 01:28:45;;;;;;;7.72;5.35;;;;;;;;;;5079755;28;20040;-63
2022/03/12 01:31:11;;;;;;;7.57;4.90;;;;;;;;;;5088751;28;20082;-63
2022/03/12 01:33:37;;;;;;;10.98;5.40;;;;;;;;;;5091252;28;20502;-63
2022/03/12 01:36:04;;;;;;;10.77;5.30;;;;;;;;;;5089454;28;20078;-63
2022/03/12 01:38:32;;;;;;;9.68;4.90;;;;;;;;;;5088730;28;20043;-63
2022/03/12 01:41:02;;;;;;;11.70;5.25;;;;;;;;;;5089088;28;20074;-63
2022/03/12 01:43:30;;;;;;;7.88;5.10;;;;;;;;;;5090179;28;20521;-63
2022/03/12 01:46:01;;;;;;;7.30;5.10;;;;;;;;;;5086195;28;20048;-63
2022/03/12 01:48:28;;;;;;;7.80;5.13;;;;;;;;;;5090137;28;20067;-63
2022/03/12 01:50:54;;;;;;;9.50;5.20;;;;;;;;;;5088757;28;20059;-63
2022/03/12 01:53:20;;;;;;;8.65;5.30;;;;;;;;;;5087630;28;20044;-63
2022/03/12 01:55:46;;;;;;;10.63;5.55;;;;;;;;;;5089669;28;20430;-63
2022/03/12 01:58:13;;;;;;;8.63;4.90;;;;;;;;;;5093113;28;20040;-63
2022/03/12 02:00:44;;;;;;;8.00;5.30;;;;;;;;;;5087335;28;20060;-63
2022/03/12 02:03:14;;;;;;;9.77;5.28;;;;;;;;;;5092865;28;20105;-63
2022/03/12 02:05:40;;;;;;;7.50;4.90;;;;;;;;;;5088540;28;20044;-63
2022/03/12 02:08:10;;;;;;;10.25;5.72;;;7.40;92.40;;;;;;5091892;28;20122;-63
2022/03/12 02:10:36;;;;;;;8.95;4.97;;;;;;;;;;5089142;28;20063;-63
2022/03/12 02:13:02;;;;;;;8.88;5.60;;;;;;;;;;5088625;28;20055;-63
2022/03/12 02:15:28;;;;;;;9.90;5.47;;;;;;;;;;5092374;28;20061;-63
2022/03/12 02:17:54;;;;;;;8.95;5.80;;;;;;;;;;5091264;28;20055;-63
2022/03/12 02:20:21;;;;;;;9.73;5.45;;;;;;;;;;5091898;28;20032;-63
2022/03/12 02:22:51;;;;;;;7.90;5.43;;;;;;;;;;5092320;28;20040;-63
2022/03/12 02:25:17;;;;;;;9.18;5.57;;;;;;;;;;5088903;28;20032;-63
2022/03/12 02:27:43;;;;;;;8.15;4.97;;;;;;;;;;5089817;28;20040;-63
2022/03/12 02:30:10;;;;;;;8.80;5.35;;;;;;;;;;5087519;28;20040;-63
2022/03/12 02:32:36;;;;;;;11.18;5.63;;;7.40;92.30;;;;;;5090783;28;20047;-63
2022/03/12 02:35:03;;;;;;;7.68;4.97;;;;;;;;;;5089251;28;20036;-63
2022/03/12 02:37:30;;;;;;;7.82;5.57;;;;;;;;;;5089615;28;20034;-63
2022/03/12 02:40:00;;;;;;;9.50;5.32;;;;;;;;;;5088129;28;20123;-63
2022/03/12 02:42:28;;;;;;;6.35;5.18;;;7.70;92.40;;;;;;5087006;28;21621;-63
2022/03/12 02:44:54;;;;;;;15.27;5.18;;;;;;;;;;5090531;28;20047;-63
2022/03/12 02:47:26;;;;;;;10.13;5.30;;;;;;;;;;5091763;28;20040;-63
2022/03/12 02:49:53;;;;;;;8.18;5.63;;;;;;;;;;5091350;28;20338;-63
2022/03/12 02:52:21;;;;;;;8.13;5.63;;;7.40;92.30;;;;;;5091166;28;20075;-63
2022/03/12 02:54:48;;;;;;;12.65;6.20;;;;;;;;;;5087534;28;20117;-63
2022/03/12 02:57:14;;;;;;;9.48;5.90;;;;;;;;;;5091155;28;20572;-63
2022/03/12 02:59:43;;;;;;;8.93;5.57;;;;;;;;;;5090561;28;20039;-63
2022/03/12 03:02:09;;;;;;;9.32;5.93;;;;;;;;;;5089128;28;20040;-63
2022/03/12 03:04:36;;;;;;;11.45;6.15;;;;;;;;;;5087317;28;20115;-63
2022/03/12 03:07:03;;;;;;;7.50;5.68;;;;;;;;;;5090913;28;20628;-63
2022/03/12 03:09:29;;;;;;;9.68;5.45;;;;;;;;;;5089477;28;20052;-63
2022/03/12 03:11:57;;;;;;;11.50;5.57;;;;;;;;;;5091572;28;20067;-63
2022/03/12 03:14:26;;;;;;;7.35;5.45;;;;;;;;;;5089486;28;20089;-63
2022/03/12 03:16:52;;;;;;;11.30;6.05;;;;;;;;;;5091805;28;20486;-63
2022/03/12 03:19:19;;;;;;;10.25;6.35;;;;;;;;;;5089055;28;20437;-63
2022/03/12 03:21:45;;;;;;;10.35;6.18;;;;;;;;;;5085245;28;20091;-63
2022/03/12 03:24:11;;;;;;;10.48;6.13;;;;;;;;;;5089352;28;20036;-63
2022/03/12 03:26:39;;;;;;;9.70;5.85;;;;;;;;;;5091109;28;20927;-63
2022/03/12 03:29:06;;;;;;;8.68;6.10;;;;;;;;;;5087949;28;20075;-63
2022/03/12 03:31:32;;;;;;;11.88;5.30;;;;;;;;;;5089705;28;20028;-63
2022/03/12 03:33:58;;;;;;;9.50;5.32;;;;;;;;;;5083553;28;20048;-63
2022/03/12 03:36:24;;;;;;;10.40;5.90;;;;;;;;;;5090434;28;20375;-63
2022/03/12 03:38:50;;;;;;;8.27;5.30;;;;;;;;;;5087524;28;20489;-63
2022/03/12 03:41:17;;;;;;;10.38;6.22;;;;;;;;;;5089555;28;20091;-63
2022/03/12 03:43:46;;;;;;;9.63;6.63;;;;;;;;;;5090380;28;20036;-63
2022/03/12 03:46:16;;;;;;;11.57;6.43;;;;;;;;;;5090613;28;20075;-60
2022/03/12 03:48:42;;;;;;;10.18;5.68;;;;;;;;;;5089655;28;20119;-63
2022/03/12 03:51:08;;;;;;;10.77;5.97;;;;;;;;;;5087211;28;20553;-63
2022/03/12 03:53:35;;;;;;;8.90;5.72;;;;;;;;;;5088698;28;20070;-63
2022/03/12 03:56:01;;;;;;;9.63;6.28;;;;;;;;;;5090837;28;20039;-63
2022/03/12 03:58:32;;;;;;;10.98;5.88;;;;;;;;;;5089048;28;20050;-63
2022/03/12 04:01:11;;;;;;;8.98;5.50;;;;;;;;;;5083963;28;20044;-63
2022/03/12 04:03:38;;;;;;;9.05;5.75;;;;;;;;;;5086004;28;20048;-63
2022/03/12 04:06:05;;;;;;;12.10;6.22;;;;;;;;;;5090494;28;20075;-63
2022/03/12 04:08:31;;;;;;;9.93;6.15;;;;;;;;;;5089754;28;20043;-61
2022/03/12 04:10:57;;;;;;;10.35;5.95;;;;;;;;;;5087031;28;20043;-61
2022/03/12 04:13:24;;;;;;;9.05;6.47;;;;;;;;;;5088976;28;20490;-61
2022/03/12 04:15:51;;;;;;;6.80;5.35;;;;;;;;;;5090794;28;20516;-61
2022/03/12 04:18:18;;;;;;;8.38;5.88;;;;;;;;;;5088129;28;20149;-61
2022/03/12 04:20:48;;;;;;;15.77;7.72;;;;;;;;;;5088223;28;21289;-61
2022/03/12 04:23:25;;;;;;;9.60;5.55;;;7.50;93.50;;;;;;5084121;28;20116;-61
2022/03/12 04:25:53;;;;;;;11.55;6.13;;;;;;;;;;5090619;28;20063;-60
2022/03/12 04:28:20;;;;;;;10.10;6.35;;;;;;;;;;5088470;28;20035;-61
2022/03/12 04:30:46;;;;;;;9.90;6.20;;;;;;;;;;5087600;28;20057;-60
2022/03/12 04:33:14;;;;;;;10.52;6.50;;;;;;;;;;5086202;28;20078;-61
2022/03/12 04:35:41;;;;;;;10.38;5.82;;;;;;;;;;5087608;28;20048;-61
2022/03/12 04:38:09;;;;;;;12.23;6.50;;;;;;;;;;5087653;28;20116;-63
2022/03/12 04:40:36;;;;;;;11.95;6.43;;;;;;;;;;5089272;28;20161;-61
2022/03/12 04:43:04;;;;;;;11.45;6.28;;;;;;;;;;5085962;28;20047;-63
2022/03/12 04:45:30;;;;;;;12.68;6.50;;;;;;;;;;5088379;28;20496;-61
2022/03/12 04:47:57;;;;;;;9.02;5.97;;;;;;;;;;5090004;28;20488;-61
2022/03/12 04:50:24;;;;;;;11.05;6.40;;;;;;;;;;5086116;28;20143;-61
2022/03/12 04:52:51;;;;;;;9.50;6.18;;;;;;;;;;5089470;28;20078;-61
2022/03/12 04:55:21;;;;;;;8.60;5.90;;;;;;;;;;5086803;28;20067;-61
2022/03/12 04:57:47;;;;;;;9.45;5.85;;;;;;;;;;5088394;28;20036;-61
2022/03/12 05:00:25;;;;;;;11.77;6.47;;;;;;;;;;5088727;28;20044;-61
2022/03/12 05:02:54;;;;;;;16.40;6.70;;;;;;;;;;5089471;28;20040;-61
2022/03/12 05:05:20;;;;;;;10.45;6.15;;;;;;;;;;5090888;28;20089;-61
2022/03/12 05:07:46;;;;;;;9.50;6.57;;;;;;;;;;5092792;28;20032;-61
2022/03/12 05:10:13;;;;;;;9.70;6.63;;;;;;;;;;5086314;28;20051;-63
2022/03/12 05:12:43;;;;;;;9.75;6.55;;;;;;;;;;5086504;28;20040;-63
2022/03/12 05:15:14;;;;;;;12.10;6.40;;;;;;;;;;5089959;28;20048;-61
2022/03/12 05:17:44;;;;;;;10.77;7.20;;;;;;;;;;5087635;28;20058;-61
2022/03/12 05:20:11;;;;;;;10.57;6.25;;;;;;;;;;5087609;28;20048;-61
2022/03/12 05:22:37;;;;;;;8.95;6.03;;;;;;;;;;5093159;28;20036;-61
2022/03/12 05:25:04;;;;;;;10.48;6.47;;;;;;;;;;5091715;28;20071;-61
2022/03/12 05:27:30;;;;;;;11.65;7.20;;;;;;;;;;5085417;28;20028;-61
2022/03/12 05:29:56;;;;;;;10.05;6.65;;;;;;;;;;5089643;28;20043;-61
2022/03/12 05:32:22;;;;;;;10.82;7.18;;;;;;;;;;5091692;28;20449;-61
2022/03/12 05:34:49;;;;;;;16.17;6.50;;;;;;;;;;5091131;28;20394;-61
2022/03/12 05:37:15;;;;;;;9.75;6.80;;;;;;;;;;5092141;28;20134;-61
2022/03/12 05:39:41;;;;;;;11.32;6.97;;;;;;;;;;5091699;28;20056;-61
2022/03/12 05:42:08;;;;;;;12.25;6.60;;;;;;;;;;5089337;28;20501;-61
2022/03/12 05:44:35;;;;;;;9.63;6.47;;;;;;;;;;5089230;28;20380;-61
2022/03/12 05:47:04;;;;;;;11.52;6.53;;;;;;;;;;5092494;28;20080;-61
2022/03/12 05:49:30;;;;;;;9.95;6.90;;;;;;;;;;5092750;28;20035;-61
2022/03/12 05:51:58;;;;;;;11.80;7.18;;;;;;;;;;5090843;28;20086;-63
2022/03/12 05:54:24;;;;;;;11.43;7.00;;;;;;;;;;5091640;28;20036;-61
2022/03/12 05:56:50;;;;;;;9.25;6.18;;;;;;;;;;5093047;28;20446;-63
2022/03/12 05:59:17;;;;;;;13.93;7.72;;;;;;;;;;5091669;28;20048;-61
2022/03/12 06:01:43;;;;;;;10.13;6.85;;;;;;;;;;5091141;28;20502;-61
2022/03/12 06:04:09;;;;;;;11.43;6.97;;;;;;;;;;5092414;28;20036;-61
2022/03/12 06:06:36;;;;;;;11.18;7.32;;;;;;;;;;5091890;28;20036;-61
2022/03/12 06:09:08;;;;;;;13.82;7.38;;;;;;;;;;5091376;28;20137;-63
2022/03/12 06:11:36;;;;;;;;;;;;;;;;;;5092029;28;20055;-61
2022/03/12 06:14:02;;;;;;;13.98;6.70;;;;;;;;;;5089600;28;20275;-61
2022/03/12 06:16:28;;;;;;;10.93;7.47;;;;;;;;;;5091843;28;20032;-61
2022/03/12 06:18:54;;;;;;;11.40;6.55;;;;;;;;;;5092107;28;20122;-62
2022/03/12 06:21:21;;;;;;;9.35;6.03;;;;;;;;;;5089086;28;20113;-62
2022/03/12 06:23:47;;;;;;;9.88;6.80;;;;;;;;;;5087582;28;20090;-61
2022/03/12 06:26:18;;;;;;;13.00;6.18;;;;;;;;;;5092330;28;20089;-61
2022/03/12 06:28:45;;;;;;;12.35;7.10;;;;;;;;;;5090030;28;20459;-61
2022/03/12 06:31:15;;;;;;;12.63;6.65;;;;;;;;;;5089873;28;20561;-61
2022/03/12 06:33:42;;;;;;;11.82;6.35;;;;;;;;;;5088216;28;20047;-61
2022/03/12 06:36:09;;;;;;;17.88;7.35;;;;;;;;;;5087867;28;20035;-63
2022/03/12 06:38:37;;;;;;;13.45;6.70;;;;;;;;;;5081902;28;20039;-63
2022/03/12 06:41:03;;;;;;;12.73;6.90;;;;;;;;;;5084387;28;20039;-61
2022/03/12 06:43:30;;;;;;;12.10;6.60;;;;;;;;;;5084685;28;20075;-61
2022/03/12 06:46:01;;;;;;;11.73;6.70;;;;;;;;;;5083965;28;20122;-63
2022/03/12 06:48:28;;;;;;;14.18;7.38;;;;;;;;;;5084695;28;20040;-61
2022/03/12 06:50:55;;;;;;;11.57;6.53;;;;;;;;;;5083702;28;20075;-61
2022/03/12 06:53:21;;;;;;;11.95;6.85;;;;;;;;;;5082236;28;20491;-61
2022/03/12 06:55:47;;;;;;;11.45;7.07;;;;;;;;;;5083136;28;20380;-63
2022/03/12 06:58:13;;;;;;;11.70;7.07;;;;;;;;;;5084004;28;20040;-61
2022/03/12 07:00:39;;;;;;;13.10;7.65;;;;;;;;;;5078853;28;20737;-61
2022/03/12 07:03:06;;;;;;;12.45;6.90;;;;;;;;;;5080793;28;20060;-61
2022/03/12 07:05:32;;;;;;;12.95;6.88;;;;;;;;;;5082703;28;20813;-61
2022/03/12 07:07:58;;;;;;;11.38;6.78;;;;;;;;;;5082070;28;20514;-61
2022/03/12 07:10:24;;;;;;;11.45;6.53;;;;;;;;;;5083178;28;20542;-61
2022/03/12 07:12:50;;;;;;;11.80;7.55;;;;;;;;;;5082236;28;20547;-61
2022/03/12 07:15:18;;;;;;;13.18;7.40;;;;;;;;;;5081857;28;20486;-61
2022/03/12 07:17:44;;;;;;;11.98;7.07;;;;;;;;;;5081824;28;20076;-61
2022/03/12 07:20:11;;;;;;;13.45;7.00;;;;;;;;;;5087298;28;20093;-61
2022/03/12 07:22:38;;;;;;;11.07;6.90;;;;;;;;;;5083249;28;20444;-62
2022/03/12 07:25:05;;;;;;;12.98;7.18;;;;;;;;;;5086316;28;20043;-61
2022/03/12 07:27:31;;;;;;;15.10;7.35;;;;;;;;;;5087111;28;20079;-61
2022/03/12 07:30:00;;;;;;;12.05;7.55;;;;;;;;;;5080963;28;20044;-61
2022/03/12 07:32:27;;;;;;;12.57;7.13;;;;;;;;;;5087121;28;20044;-61
2022/03/12 07:34:53;;;;;;;15.35;7.85;;;;;;;;;;5088951;28;20506;-61
2022/03/12 07:37:21;;;;;;;12.80;7.55;;;;;;;;;;5086314;28;20040;-61
2022/03/12 07:39:47;;;;;;;12.77;7.00;;;;;;;;;;5090482;28;20040;-61
2022/03/12 07:42:13;;;;;;;13.75;7.05;;;;;;;;;;5086640;28;20496;-61
2022/03/12 07:44:39;;;;;;;14.35;7.32;;;;;;;;;;5090860;28;20039;-61
2022/03/12 07:47:06;;;;;;;12.60;7.13;;;;;;;;;;5088211;28;20421;-61
2022/03/12 07:49:33;;;;;;;11.65;7.68;;;;;;;;;;5089636;28;20526;-61
2022/03/12 07:51:59;;;;;;;11.45;7.40;;;;;;;;;;5084497;28;20085;-61
2022/03/12 07:54:25;;;;;;;12.32;7.00;;;;;;;;;;5090829;28;20115;-63
2022/03/12 07:56:51;;;;;;;10.75;7.68;;;;;;;;;;5090034;28;20035;-61
2022/03/12 07:59:17;;;;;;;12.13;7.30;;;;;;;;;;5091161;28;20071;-61
2022/03/12 08:01:43;;;;;;;12.85;7.90;;;;;;;;;;5088942;28;20036;-61
2022/03/12 08:04:09;;;;;;;11.02;8.13;;;;;;;;;;5089467;28;20118;-61
2022/03/12 08:06:36;;;;;;;12.10;7.90;;;;;;;;;;5090005;28;20050;-61
2022/03/12 08:09:03;;;;;;;10.77;7.47;;;;;;;;;;5087926;28;20067;-61
2022/03/12 08:11:29;;;;;;;13.70;7.80;;;;;;;;;;5088709;28;20040;-61
2022/03/12 08:14:01;;;;;;;13.40;7.70;;;;;;;;;;5087629;28;20035;-61
2022/03/12 08:16:33;;;;;;;13.00;7.70;;;;;;;;;;5087174;28;20409;-61
2022/03/12 08:19:00;;;;;;;12.73;8.40;;;;;;;;;;5089537;28;20170;-61
2022/03/12 08:21:26;;;;;;;14.30;7.82;;;;;;;;;;5087663;28;20043;-61
2022/03/12 08:23:52;;;;;;;13.65;7.93;;;;;;;;;;5088713;28;20128;-61
2022/03/12 08:26:19;;;;;;;13.73;7.90;;;;;;;;;;5090052;28;20040;-61
2022/03/12 08:28:45;;;;;;;11.48;7.25;;;;;;;;;;5086511;28;20039;-61
2022/03/12 08:31:12;;;;;;;13.13;8.90;;;;;;;;;;5088833;28;20042;-61
2022/03/12 08:33:38;;;;;;;11.55;7.55;;;;;;;;;;5090571;28;20526;-61
2022/03/12 08:36:05;;;;;;;12.82;8.80;;;9.80;95.10;;;;;;5088481;28;20036;-62
2022/03/12 08:38:35;;;;;;;14.15;8.10;;;10.20;95.60;;;;;;5092836;28;20125;-61
2022/03/12 08:41:05;;;;;;;15.50;8.43;;;10.30;95.30;;;;;;5093644;28;20113;-61
2022/03/12 08:43:32;;;;;;;12.73;7.85;;;;;;;;;;5093599;28;20505;-61
2022/03/12 08:45:58;;;;;;;15.90;8.52;;;;;;;;;;5093736;28;20050;-61
2022/03/12 08:48:24;;;;;;;11.15;8.20;;;;;;;;;;5092320;28;20048;-61
2022/03/12 08:50:50;;;;;;;11.60;8.00;;;;;;;;;;5092389;28;20406;-61
2022/03/12 08:53:16;;;;;;;11.95;8.02;;;;;;;;;;5090899;28;20046;-61
2022/03/12 08:55:42;;;;;;;12.68;7.80;;;;;;;;;;5093968;28;20047;-61
2022/03/12 08:58:08;;;;;;;12.13;7.60;;;;;;;;;;5094267;28;20508;-62
2022/03/12 09:00:35;;;;;;;13.65;7.70;;;11.40;95.30;;;;;;5093884;28;20035;-62
2022/03/12 09:03:01;;;;;;;12.20;8.45;;;;;;;;;;5094406;28;20140;-61
2022/03/12 09:05:27;;;;;;;12.38;8.48;;;;;;;;;;5094127;28;20040;-61
2022/03/12 09:07:53;;;;;;;13.60;8.70;;;;;;;;;;5091392;28;20064;-61
2022/03/12 09:10:21;;;;;;;13.75;8.30;;;;;;;;;;5093136;28;20433;-62
2022/03/12 09:12:47;;;;;;;13.60;8.10;;;;;;;;;;5094225;28;20044;-62
2022/03/12 09:15:14;;;;;;;14.73;8.02;;;;;;;;;;5094008;28;20111;-62
2022/03/12 09:17:40;;;;;;;11.77;7.97;;;;;;;;;;5093803;28;20036;-62
2022/03/12 09:20:07;;;;;;;11.90;7.65;;;;;;;;;;5094015;28;20032;-61
2022/03/12 09:22:33;;;;;;;12.35;7.47;;;;;;;;;;5093916;28;20032;-62
2022/03/12 09:25:03;;;;;;;12.52;7.90;;;;;;;;;;5093650;28;20040;-62
2022/03/12 09:27:30;;;;;;;12.57;7.13;;;;;;;;;;5088623;28;20423;-62
2022/03/12 09:29:56;;;;;;;11.15;7.50;;;;;;;;;;5093595;28;20521;-61
2022/03/12 09:32:22;;;;;;;14.50;7.63;;;;;;;;;;5093433;28;20074;-61
2022/03/12 09:34:49;;;;;;;9.85;6.63;;;;;;;;;;5093513;28;20036;-61
2022/03/12 09:37:15;;;;;;;9.15;7.18;;;;;;;;;;5093776;28;20076;-62
2022/03/12 09:39:41;;;;;;;9.38;7.35;;;;;;;;;;5093566;28;20068;-62
2022/03/12 09:42:08;;;;;;;10.10;7.53;;;12.60;98.20;;;;;;5093427;28;20118;-62
2022/03/12 09:44:34;;;;;;;10.20;6.72;;;;;;;;;;5093224;28;20116;-62
2022/03/12 09:47:00;;;;;;;7.88;7.00;;;;;;;;;;5093530;28;20444;-62
2022/03/12 09:49:27;;;;;;;9.65;7.22;;;;;;;;;;5092557;28;20039;-62
2022/03/12 09:51:53;;;;;;;9.68;6.82;;;;;;;;;;5088422;28;20456;-62
2022/03/12 09:54:20;;;;;;;11.23;7.53;;;;;;;;;;5088977;28;20036;-62
2022/03/12 09:56:46;;;;;;;12.57;7.00;;;;;;;;;;5091846;28;20044;-62
2022/03/12 09:59:12;;;;;;;8.50;6.60;;;;;;;;;;5093021;28;20041;-62
2022/03/12 10:01:38;;;;;;;9.43;7.22;;;;;;;;;;5092798;28;20128;-62
2022/03/12 10:04:05;;;;;;;9.43;6.47;;;;;;;;;;5092091;28;20036;-62
2022/03/12 10:06:31;;;;;;;9.63;6.72;;;;;;;;;;5092191;28;20051;-62
2022/03/12 10:08:57;;;;;;;11.93;6.53;;;;;;;;;;5092732;28;20039;-62
2022/03/12 10:11:24;;;;;;;8.55;5.75;;;;;;;;;;5092771;28;20097;-62
2022/03/12 10:13:50;;;;;;;9.10;6.60;;;;;;;;;;5091884;28;20050;-62
2022/03/12 10:16:18;;;;;;;10.00;6.72;;;;;;;;;;5092683;28;20048;-62
2022/03/12 10:18:45;;;;;;;13.43;6.50;;;;;;;;;;5091832;28;20039;-62
2022/03/12 10:21:11;;;;;;;14.10;5.85;;;;;;;;;;5091551;28;20051;-62
2022/03/12 10:23:37;;;;;;;9.63;6.40;;;;;;;;;;5090631;28;20052;-62
2022/03/12 10:26:03;;;;;;;10.45;5.53;;;14.20;97.30;;;;;;5092250;28;20410;-62
2022/03/12 10:28:34;;;;;;;8.18;5.85;;;;;;;;;;5092729;28;20024;-62
2022/03/12 10:31:05;;;;;;;9.85;6.57;;;;;;;;;;5092825;28;20043;-62
2022/03/12 10:33:31;;;;;;;9.77;6.32;;;14.50;97.60;;;;;;5092611;28;20040;-62
2022/03/12 10:36:15;;;;;;;8.57;6.32;;;14.70;97.90;;;;;;5091823;28;20048;-62
2022/03/12 10:38:42;;;;;;;8.73;6.10;;;14.80;97.50;;;;;;5089311;28;20496;-62
2022/03/12 10:41:09;;;;;;;8.63;5.90;;;14.80;97.10;;;;;;5091544;28;20160;-62
2022/03/12 10:43:49;;;;;;;7.78;5.30;;;;;;;;;;5090548;28;20044;-62
2022/03/12 10:46:19;;;;;;;8.95;5.70;;;;;;;;;;5090686;28;20044;-61
2022/03/12 10:48:48;;;;;;;8.35;5.90;;;;;;;;;;5091198;28;20074;-62
2022/03/12 10:51:15;;;;;;;8.50;5.78;;;15.20;97.40;;;;;;5090419;28;20127;-62
2022/03/12 10:53:41;;;;;;;7.43;5.70;;;;;;;;;;5091776;28;20043;-62
2022/03/12 10:56:08;;;;;;;7.35;5.65;;;;;;;;;;5092023;28;20036;-62
2022/03/12 10:58:34;;;;;;;11.02;5.45;;;;;;;;;;5091006;28;20047;-62
2022/03/12 11:01:02;;;;;;;10.32;5.70;;;15.40;96.80;;;;;;5090576;28;20032;-62
2022/03/12 11:03:30;;;;;;;14.07;5.90;;;15.50;96.70;;;;;;5091540;28;20040;-62
2022/03/12 11:05:57;;;;;;;9.18;5.97;;;;;;;;;;5091327;28;20055;-62
2022/03/12 11:08:30;;;;;;;10.05;5.65;;;;;;;;;;5091975;28;20036;-62
2022/03/12 11:11:11;;;;;;;7.63;5.65;;;15.40;96.60;;;;;;5091805;28;20394;-62
2022/03/12 11:13:41;;;;;;;6.88;5.32;;;;;;;;;;5091578;28;20217;-62
2022/03/12 11:16:07;;;;;;;9.32;5.53;;;15.60;96.60;;;;;;5091713;28;20092;-62
2022/03/12 11:18:34;;;;;;;6.63;5.20;;;15.40;96.20;;;;;;5091809;28;20032;-62
2022/03/12 11:21:00;;;;;;;8.15;5.65;;;;;;;;;;5091492;28;20035;-62
2022/03/12 11:23:29;;;;;;;7.40;5.53;;;;;;;;;;5090564;28;20043;-62
2022/03/12 11:26:00;;;;;;;8.15;5.78;;;15.80;96.40;;;;;;5091077;28;20138;-62
2022/03/12 11:28:28;;;;;;;8.02;5.80;;;;;;;;;;5091670;28;20035;-62
2022/03/12 11:30:55;;;;;;;8.55;5.82;;;;;;;;;;5091290;28;20051;-62
2022/03/12 11:33:23;;;;;;;7.85;5.45;;;15.80;95.50;;;;;;5091648;28;20039;-62
2022/03/12 11:36:01;;;;;;;8.65;5.55;;;16.00;95.90;;;;;;5091407;28;20520;-62
2022/03/12 11:38:27;;;;;;;9.15;6.45;;;;;;;;;;5090049;28;20067;-62
2022/03/12 11:41:06;;;;;;;12.98;5.75;;;16.00;96.00;;;;;;5091202;28;20036;-61
2022/03/12 11:43:36;;;;;;;8.32;5.57;;;;;;;;;;5091473;28;20035;-62
2022/03/12 11:46:05;;;;;;;9.35;4.95;;;15.80;95.70;;;;;;5090828;28;20123;-62
2022/03/12 11:48:32;;;;;;;6.47;5.25;;;15.70;95.20;;;;;;5091180;28;20043;-62
2022/03/12 11:51:01;;;;;;;10.95;6.32;;;15.60;96.00;;;;;;5090895;28;20083;-62
2022/03/12 11:53:27;;;;;;;9.60;5.80;;;;;;;;;;5091242;28;20397;-62
2022/03/12 11:55:53;;;;;;;7.82;6.00;;;;;;;;;;5090820;28;20065;-62
2022/03/12 11:58:19;;;;;;;8.93;5.90;;;;;;;;;;5090761;28;20040;-63
2022/03/12 12:00:47;;;;;;;7.82;5.80;;;15.50;96.20;;;;;;5090962;28;20048;-62
2022/03/12 12:03:14;;;;;;;7.72;5.53;;;;;;;;;;5090858;28;20547;-62
2022/03/12 12:05:43;;;;;;;9.63;5.60;;;;;;;;;;5090786;28;20083;-62
2022/03/12 12:08:10;;;;;;;7.70;5.82;;;;;;;;;;5090732;28;20398;-62
2022/03/12 12:10:41;;;;;;;11.48;6.05;;;;;;;;;;5090719;28;20458;-62
2022/03/12 12:13:08;;;;;;;8.10;5.40;;;;;;;;;;5090247;28;20109;-62
2022/03/12 12:15:36;;;;;;;8.45;5.40;;;;;;;;;;5090917;28;20503;-62
2022/03/12 12:18:02;;;;;;;7.07;5.20;;;15.40;96.00;;;;;;5090641;28;20052;-62
2022/03/12 12:20:29;;;;;;;9.68;5.70;;;15.30;96.30;;;;;;5090838;28;20452;-62
2022/03/12 12:23:00;;;;;;;7.28;5.50;;;15.20;96.50;;;;;;5090248;28;20075;-62
2022/03/12 12:25:30;;;;;;;8.77;5.07;;;15.30;96.20;;;;;;5090386;28;20142;-62
2022/03/12 12:27:57;;;;;;;9.30;4.95;;;;;;;;;;5090649;28;20085;-62
2022/03/12 12:30:28;;;;;;;8.80;5.50;;;15.60;95.50;;;;;;5090436;28;20036;-62
2022/03/12 12:32:54;;;;;;;6.70;5.10;;;;;;;;;;5090656;28;20028;-62
2022/03/12 12:35:21;;;;;;;8.32;5.65;;;15.50;95.90;;;;;;5089927;28;20123;-62
2022/03/12 12:37:58;;;;;;;8.63;4.90;;;;;;;;;;5090681;28;20036;-62
2022/03/12 12:40:45;;;;;;;8.80;5.10;;;15.70;96.40;;;;;;5090341;28;20115;-62
2022/03/12 12:43:13;;;;;;;6.90;4.78;;;;;;;;;;5089826;28;20047;-63
2022/03/12 12:45:53;;;;;;;8.30;4.97;;;16.40;95.20;;;;;;5089903;28;20418;-63
2022/03/12 12:48:31;;;;;;;7.43;4.90;;;;;;;;;;5090155;28;20085;-62
2022/03/12 12:51:06;;;;;;;8.25;5.35;;;16.70;94.50;;;;;;5087345;28;20055;-63
2022/03/12 12:53:40;;;;;;;7.70;5.07;;;16.70;95.40;;;;;;5089763;28;20090;-62
2022/03/12 12:56:18;;;;;;;7.35;5.13;;;16.70;94.20;;;;;;5087006;28;20059;-62
2022/03/12 12:59:02;;;;;;;6.90;4.88;;;16.70;93.90;;;;;;5090059;28;20051;-63
2022/03/12 13:01:39;;;;;;;7.75;5.50;;;17.00;94.00;;;;;;5089673;28;20161;-63
2022/03/12 13:04:08;;;;;;;7.22;4.65;;;16.90;94.80;;;;;;5089924;28;20140;-62
2022/03/12 13:06:36;;;;;;;8.88;4.82;;;16.90;93.80;;;;;;5089447;28;20509;-62
2022/03/12 13:09:23;;;;;;;8.00;4.80;;;;;;;;;;5089127;28;20113;-62
2022/03/12 13:11:48;;;;;;;7.03;5.07;;;;;;;;;;5072118;28;20040;-62
2022/03/12 13:14:25;;;;;;;10.48;4.93;;;16.80;93.90;;;;;;5089636;28;20043;-62
2022/03/12 13:17:05;;;;;;;8.45;5.05;;;17.20;94.60;;;;;;5090091;28;20119;-62
2022/03/12 13:19:33;;;;;;;6.93;4.78;;;;;;;;;;5089354;28;20406;-62
2022/03/12 13:22:20;;;;;;;6.13;4.45;;;18.00;93.20;;;;;;5087615;28;20482;-62
2022/03/12 13:24:54;;;;;;;8.10;4.80;;;18.00;94.30;;;;;;5087874;28;20059;-63
2022/03/12 13:27:36;;;;;;;9.05;4.80;;;18.20;94.00;;;;;;5092484;28;20424;-62
2022/03/12 13:30:16;;;;;;;7.18;4.22;;;;;;;;;;5092176;28;20036;-63
2022/03/12 13:32:44;;;;;;;6.93;5.03;;;18.60;93.20;;;;;;5093284;28;20056;-62
2022/03/12 13:35:14;;;;;;;9.63;5.07;;;;;;;;;;5092348;28;20470;-62
2022/03/12 13:37:42;;;;;;;7.70;4.78;;;18.40;92.90;;;;;;5093201;28;20040;-62
2022/03/12 13:40:11;;;;;;;11.60;5.20;;;18.60;93.10;;;;;;5092511;28;20115;-63
2022/03/12 13:42:39;;;;;;;7.80;4.90;;;18.40;92.30;;;;;;5093128;28;20086;-62
2022/03/12 13:45:05;;;;;;;6.82;4.53;;;;;;;;;;5090811;28;20371;-62
2022/03/12 13:47:35;;;;;;;7.38;4.65;;;18.40;92.50;;;;;;5091374;28;20040;-62
2022/03/12 13:50:01;;;;;;;8.95;4.75;;;;;;;;;;5092506;28;20047;-62
2022/03/12 13:52:27;;;;;;;8.20;4.25;;;;;;;;;;5092285;28;20058;-62
2022/03/12 13:55:05;;;;;;;5.68;4.43;;;17.70;93.50;;;;;;5092444;28;20036;-62
2022/03/12 13:57:35;;;;;;;5.95;4.60;;;17.20;93.70;;;;;;5091210;28;20093;-62
2022/03/12 14:00:06;;;;;;;8.90;4.90;;;17.10;93.80;;;;;;5092756;28;20070;-62
2022/03/12 14:02:33;;;;;;;9.40;5.45;;;;;;;;;;5091230;28;20135;-62
2022/03/12 14:04:59;;;;;;;6.43;4.70;;;17.00;93.60;;;;;;5091325;28;20040;-62
2022/03/12 14:07:25;;;;;;;7.72;4.90;;;;;;;;;;5090616;28;20043;-62
2022/03/12 14:09:52;;;;;;;7.20;4.53;;;;;;;;;;5092968;28;20445;-62
2022/03/12 14:12:19;;;;;;;6.13;4.28;;;;;;;;;;5089327;28;20065;-62
2022/03/12 14:14:50;;;;;;;7.43;4.15;;;;;;;;;;5092428;28;20027;-62
2022/03/12 14:17:16;;;;;;;8.15;4.75;;;;;;;;;;5090921;28;20040;-62
2022/03/12 14:19:42;;;;;;;8.60;4.68;;;;;;;;;;5091684;28;20111;-62